Time;durP1;ratioP1;P1;durP2;ratioP2;P2;SDS_P1;SDS_P2;PMS_P1;PMS_P2;Temp;Humidity;BMP_temperature;BMP_pressure;BME280_temperature;BME280_humidity;BME280_pressure;Samples;Min_cycle;Max_cycle;Signal;HPM_P1;HPM_P2
2024/04/06 00:02:05;;;;;;;7.80;2.20;;;;;;;13.03;91.03;98855.60;273786;1268;22377;-83
2024/04/06 00:08:58;;;;;;;5.10;2.20;;;;;;;13.10;90.77;98853.50;273869;1268;22332;-83
2024/04/06 00:15:21;;;;;;;4.90;2.40;;;;;;;13.10;90.71;98851.69;273784;1268;22263;-83
2024/04/06 00:21:27;;;;;;;6.40;2.00;;;;;;;13.18;90.59;98846.48;274010;1271;22401;-84
2024/04/06 00:28:13;;;;;;;5.10;2.20;;;;;;;13.25;90.35;98845.55;273869;1268;23776;-84
2024/04/06 00:34:28;;;;;;;4.10;2.40;;;;;;;13.28;90.26;98841.84;272399;1268;23692;-84
2024/04/06 00:40:30;;;;;;;5.30;2.40;;;;;;;13.30;90.18;98840.02;271712;1266;24280;-84
2024/04/06 00:47:24;;;;;;;4.40;2.40;;;;;;;13.31;90.19;98836.48;272660;1268;22293;-84
2024/04/06 00:53:47;;;;;;;4.00;2.20;;;;;;;13.32;90.14;98839.78;272064;1267;23818;-84
2024/04/06 00:59:48;;;;;;;5.00;1.90;;;;;;;13.35;90.08;98838.84;274090;1266;22653;-84
2024/04/06 01:05:49;;;;;;;5.50;2.10;;;;;;;13.40;89.90;98837.88;271921;1267;22552;-84
2024/04/06 01:11:54;;;;;;;3.50;1.80;;;;;;;13.41;89.88;98841.56;270998;1267;22360;-83
2024/04/06 01:18:44;;;;;;;5.20;2.20;;;;;;;13.43;89.99;98837.80;272326;1266;22268;-84
2024/04/06 01:24:50;;;;;;;4.00;1.70;;;;;;;13.43;90.23;98845.25;273721;1267;22631;-84
2024/04/06 01:30:53;;;;;;;4.70;1.90;;;;;;;13.43;90.36;98831.27;274146;1256;23184;-84
2024/04/06 01:37:19;;;;;;;5.00;2.20;;;;;;;13.41;90.83;98838.66;273207;1268;25269;-85
2024/04/06 01:43:24;;;;;;;7.60;3.90;;;;;;;13.36;91.20;98839.46;271583;1267;22395;-83
2024/04/06 01:49:52;;;;;;;13.00;4.50;;;;;;;13.28;91.27;98847.33;271458;1267;22380;-84
2024/04/06 01:55:56;;;;;;;;;;;;;;;13.16;91.51;98859.84;273789;1268;22768;-83
2024/04/06 02:02:19;;;;;;;20.70;6.70;;;;;;;13.00;92.13;98874.77;271346;1267;22573;-84
2024/04/06 02:09:27;;;;;;;17.00;8.20;;;;;;;12.83;92.17;98875.92;270615;1268;22561;-84
2024/04/06 02:15:28;;;;;;;14.90;8.00;;;;;;;12.72;92.02;98877.49;271742;1268;22336;-84
2024/04/06 02:21:29;;;;;;;16.40;7.30;;;;;;;12.60;92.78;98888.61;271749;1264;22572;-84
2024/04/06 02:27:30;;;;;;;19.30;7.90;;;;;;;12.49;93.11;98897.15;271471;1268;22321;-84
2024/04/06 02:33:31;;;;;;;13.70;7.50;;;;;;;12.48;93.49;98902.56;273525;1270;23613;-85
2024/04/06 02:39:32;;;;;;;16.10;6.70;;;;;;;12.52;93.80;98911.74;270965;1268;22650;-84
2024/04/06 02:46:13;;;;;;;13.20;5.90;;;;;;;12.56;94.09;98918.20;272443;1269;22477;-84
2024/04/06 02:52:16;;;;;;;13.90;6.80;;;;;;;12.64;94.29;98920.24;272294;1268;22716;-83
2024/04/06 02:58:17;;;;;;;9.50;4.80;;;;;;;12.76;94.61;98926.86;271605;1267;22550;-85
2024/04/06 03:04:26;;;;;;;8.40;4.40;;;;;;;12.89;95.26;98934.80;271045;1268;22515;-83
2024/04/06 03:10:27;;;;;;;8.20;4.10;;;;;;;13.01;95.13;98932.38;271134;1267;22667;-85
2024/04/06 03:16:28;;;;;;;4.50;2.40;;;;;;;13.17;95.61;98935.30;273156;1267;22427;-84
2024/04/06 03:22:30;;;;;;;9.50;3.00;;;;;;;13.50;95.29;98948.55;273250;1269;22390;-82
2024/04/06 03:28:32;;;;;;;5.60;3.00;;;;;;;13.78;94.35;98965.24;272998;1268;22320;-84
2024/04/06 03:34:33;;;;;;;3.50;2.00;;;;;;;13.87;93.75;98978.98;273185;1268;22668;-84
2024/04/06 03:40:34;;;;;;;4.20;2.30;;;;;;;13.95;93.72;98992.09;273273;1268;22508;-85
2024/04/06 03:46:36;;;;;;;3.80;1.50;;;;;;;14.02;93.57;99001.75;273124;1268;22464;-84
2024/04/06 03:52:37;;;;;;;5.40;1.70;;;;;;;14.12;93.44;99002.66;272181;1268;22577;-83
2024/04/06 03:58:39;;;;;;;3.60;1.20;;;;;;;14.23;93.23;99014.05;271101;1267;22660;-84
2024/04/06 04:04:40;;;;;;;3.50;1.50;;;;;;;14.33;93.16;99027.40;271961;1268;22295;-84
2024/04/06 04:10:41;;;;;;;4.90;1.70;;;;;;;14.33;93.04;99031.25;272756;1268;22346;-84
2024/04/06 04:16:42;;;;;;;3.90;1.50;;;;;;;14.38;92.89;99029.04;272848;1269;23600;-84
2024/04/06 04:22:44;;;;;;;7.20;1.80;;;;;;;14.38;92.66;99035.88;271334;1267;22606;-84
2024/04/06 04:28:45;;;;;;;4.30;1.50;;;;;;;14.33;92.70;99043.85;273052;1268;22292;-83
2024/04/06 04:35:08;;;;;;;6.30;1.60;;;;;;;14.29;92.65;99053.30;273197;1268;22492;-84
2024/04/06 04:41:59;;;;;;;4.80;2.00;;;;;;;14.23;92.78;99053.76;273395;1268;22360;-84
2024/04/06 04:49:33;;;;;;;5.50;2.10;;;;;;;14.19;92.99;99060.61;272477;1268;22576;-84
2024/04/06 04:55:35;;;;;;;6.30;2.80;;;;;;;14.19;93.06;99066.98;272991;1268;23101;-84
2024/04/06 05:01:57;;;;;;;7.10;2.80;;;;;;;14.17;93.10;99075.32;272238;1267;23441;-84
2024/04/06 05:07:58;;;;;;;6.30;2.70;;;;;;;14.19;93.11;99089.87;272059;1268;23101;-85
2024/04/06 05:14:03;;;;;;;8.40;2.80;;;;;;;14.26;92.86;99103.19;272763;1268;22271;-85
2024/04/06 05:20:30;;;;;;;4.90;2.10;;;;;;;14.28;92.49;99107.11;273392;1267;23328;-84
2024/04/06 05:26:31;;;;;;;;;;;;;;;14.28;92.52;99117.65;272786;1268;23234;-84
2024/04/06 05:32:32;;;;;;;3.40;1.20;;;;;;;14.28;92.37;99124.58;271470;1268;22888;-84
2024/04/06 05:38:34;;;;;;;3.40;1.50;;;;;;;14.32;92.16;99133.07;273591;1268;22604;-84
2024/04/06 05:44:34;;;;;;;5.40;1.70;;;;;;;14.38;91.74;99139.35;273755;1268;23522;-85
2024/04/06 05:50:38;;;;;;;5.00;1.80;;;;;;;14.46;91.52;99141.30;273480;1268;22681;-84
2024/04/06 05:56:41;;;;;;;3.30;1.70;;;;;;;14.58;91.02;99144.89;271983;1268;22490;-84
2024/04/06 06:02:46;;;;;;;3.60;1.70;;;;;;;14.64;90.88;99151.96;273912;1268;23244;-84
2024/04/06 06:08:54;;;;;;;4.00;1.70;;;;;;;14.71;90.89;99156.98;273846;1269;23566;-85
2024/04/06 06:14:55;;;;;;;3.40;1.60;;;;;;;14.78;90.89;99163.17;272039;1268;22834;-84
2024/04/06 06:20:56;;;;;;;3.20;1.80;;;;;;;14.85;90.78;99172.68;272555;1268;22505;-85
2024/04/06 06:26:58;;;;;;;3.90;1.70;;;;;;;14.93;90.77;99178.25;272436;1268;22948;-83
2024/04/06 06:32:59;;;;;;;6.20;2.10;;;;;;;15.02;91.00;99180.19;271833;1268;25554;-84
2024/04/06 06:39:31;;;;;;;6.80;1.80;;;;;;;15.14;91.13;99187.23;272744;1269;22287;-84
2024/04/06 06:46:24;;;;;;;3.20;1.90;;;;;;;15.30;90.80;99187.24;272594;1269;23019;-85
2024/04/06 06:53:24;;;;;;;6.20;2.40;;;;;;;15.54;90.83;99181.61;274302;1267;22396;-85
2024/04/06 06:59:25;;;;;;;5.10;2.40;;;;;;;15.82;91.34;99192.09;270263;1269;3935852;-84
2024/04/06 07:06:23;;;;;;;5.30;2.60;;;;;;;16.06;91.61;99203.44;273957;1269;22281;-85
2024/04/06 07:12:39;;;;;;;3.50;1.90;;;;;;;16.30;90.99;99206.23;272436;1269;23564;-85
2024/04/06 07:19:06;;;;;;;4.50;2.10;;;;;;;16.50;89.82;99208.29;272762;1269;22544;-84
2024/04/06 07:25:07;;;;;;;4.90;2.30;;;;;;;16.71;89.34;99216.39;273986;1269;23578;-85
2024/04/06 07:31:58;;;;;;;5.20;1.80;;;;;;;16.83;87.63;99220.28;273461;1269;22357;-85
2024/04/06 07:37:59;;;;;;;4.40;1.90;;;;;;;16.96;86.57;99220.79;273039;1267;22601;-85
2024/04/06 07:44:04;;;;;;;6.70;1.90;;;;;;;17.01;86.79;99219.93;273012;1269;22244;-84
2024/04/06 07:50:32;;;;;;;5.70;2.00;;;;;;;17.33;85.79;99211.03;273575;1268;22416;-83
2024/04/06 07:57:02;;;;;;;3.30;1.60;;;;;;;17.78;83.33;99206.95;272515;1269;22638;-83
2024/04/06 08:04:09;;;;;;;3.10;1.30;;;;;;;18.25;82.34;99209.40;271836;1269;22588;-85
2024/04/06 08:10:17;;;;;;;2.70;1.30;;;;;;;18.71;81.16;99207.52;272582;1270;22298;-85
2024/04/06 08:16:18;;;;;;;3.50;1.00;;;;;;;18.97;79.33;99205.67;272733;1268;22224;-86
2024/04/06 08:29:53;;;;;;;5.70;1.20;;;;;;;19.53;75.07;99206.54;273161;1265;24368;-84
2024/04/06 08:36:47;;;;;;;3.70;1.40;;;;;;;19.72;72.46;99209.13;271583;1269;23317;-85
2024/04/06 08:58:46;;;;;;;;;;;;;;;;;;;;;
2024/04/06 09:04:57;;;;;;;4.10;1.50;;;;;;;19.91;67.82;99235.21;271287;1269;22595;-84
2024/04/06 09:11:42;;;;;;;3.30;1.80;;;;;;;20.12;68.26;99220.38;274095;1275;22393;-84
2024/04/06 09:18:04;;;;;;;5.10;2.00;;;;;;;20.29;65.87;99216.89;271880;1269;23014;-85
2024/04/06 09:24:06;;;;;;;3.40;1.50;;;;;;;20.24;65.94;99211.83;272605;1269;22386;-85
2024/04/06 09:30:35;;;;;;;4.30;1.80;;;;;;;20.29;64.97;99208.14;273433;1269;27548;-84
2024/04/06 09:37:26;;;;;;;3.10;1.20;;;;;;;20.28;63.86;99216.50;272258;1268;22518;-84
2024/04/06 09:44:48;;;;;;;3.20;1.50;;;;;;;20.44;64.55;99223.58;273575;1269;22391;-85
2024/04/06 09:58:55;;;;;;;3.70;1.40;;;;;;;20.82;62.73;99228.00;271818;1281;22391;-83
2024/04/06 10:04:57;;;;;;;1.80;1.10;;;;;;;21.17;61.24;99225.96;270812;1280;22751;-84
2024/04/06 10:11:04;;;;;;;3.30;1.40;;;;;;;21.35;61.31;99231.40;271623;1275;22376;-84
2024/04/06 10:25:02;;;;;;;3.10;1.30;;;;;;;21.60;59.09;99224.07;272058;1275;23261;-84
2024/04/06 10:31:06;;;;;;;5.20;1.40;;;;;;;21.81;58.31;99221.16;271435;1269;23209;-86
2024/04/06 10:37:57;;;;;;;3.20;1.60;;;;;;;21.76;56.17;99213.17;274002;1275;23202;-84
2024/04/06 10:44:02;;;;;;;4.80;1.20;;;;;;;21.75;57.53;99199.13;273966;1267;22335;-85
2024/04/06 10:50:53;;;;;;;2.70;1.20;;;;;;;21.81;57.47;99196.64;273825;1266;22267;-84
2024/04/06 10:57:44;;;;;;;3.40;1.40;;;;;;;21.86;57.41;99202.43;273556;1263;22715;-86
2024/04/06 11:03:52;;;;;;;3.20;1.30;;;;;;;21.75;56.39;99204.11;274090;1269;22578;-83
2024/04/06 11:25:19;;;;;;;2.80;1.30;;;;;;;21.52;57.36;99193.35;273973;1269;22210;-85
2024/04/06 11:31:44;;;;;;;3.20;1.50;;;;;;;21.68;57.13;99185.37;274104;1275;22274;-84
2024/04/06 11:37:45;;;;;;;3.80;1.40;;;;;;;21.81;55.96;99183.89;273653;1269;22280;-84
2024/04/06 11:44:37;;;;;;;3.00;1.30;;;;;;;21.80;56.10;99178.66;273757;1269;22420;-84
2024/04/06 11:51:03;;;;;;;2.80;1.40;;;;;;;22.45;56.92;99162.98;272632;1269;22389;-85
2024/04/06 11:58:12;;;;;;;2.70;1.60;;;;;;;22.57;54.68;99158.92;273692;1275;22288;-83
2024/04/06 12:04:15;;;;;;;2.10;1.30;;;;;;;22.33;55.11;99161.47;272225;1263;22546;-84
2024/04/06 12:10:18;;;;;;;3.50;1.20;;;;;;;22.45;55.65;99160.52;271636;1269;22578;-84
2024/04/06 12:16:22;;;;;;;3.80;1.10;;;;;;;22.87;53.88;99157.77;273281;1268;22291;-84
2024/04/06 12:22:24;;;;;;;2.40;1.00;;;;;;;23.11;53.64;99155.48;272545;1269;23908;-83
2024/04/06 12:29:14;;;;;;;;;;;;;;;;;;;;;
2024/04/06 12:35:39;;;;;;;2.60;1.20;;;;;;;23.03;51.26;99150.33;271094;1269;23341;-84
2024/04/06 12:42:29;;;;;;;2.20;0.90;;;;;;;23.07;51.40;99151.70;271810;1269;24203;-83
2024/04/06 12:48:34;;;;;;;2.50;1.20;;;;;;;23.32;51.25;99151.35;270862;1259;24267;-85
2024/04/06 12:54:57;;;;;;;2.60;1.20;;;;;;;23.21;51.38;99150.87;272219;1268;22527;-83
2024/04/06 13:01:00;;;;;;;5.20;1.60;;;;;;;22.94;52.23;99153.95;273123;1269;23497;-83
2024/04/06 13:07:01;;;;;;;4.90;1.70;;;;;;;22.66;52.32;99160.54;272605;1269;23273;-85
2024/04/06 13:13:31;;;;;;;2.70;1.30;;;;;;;22.38;51.65;99167.06;272368;1269;22286;-84
2024/04/06 13:27:01;;;;;;;5.40;2.00;;;;;;;21.49;53.09;99161.84;271622;1269;22562;-85
2024/04/06 13:34:05;;;;;;;8.70;1.70;;;;;;;21.29;53.82;99167.27;272168;1266;22570;-84
2024/04/06 13:40:50;;;;;;;3.90;1.50;;;;;;;20.95;53.98;99171.10;269573;1274;23689;-85
2024/04/06 13:47:31;;;;;;;3.10;1.90;;;;;;;20.67;54.48;99170.68;270832;1276;22379;-85
2024/04/06 13:54:51;;;;;;;;;;;;;;;20.60;54.36;99166.98;272351;1269;22520;-83
2024/04/06 14:00:53;;;;;;;4.50;1.30;;;;;;;20.66;54.33;99165.54;273927;1269;22251;-84
2024/04/06 14:07:19;;;;;;;3.10;1.30;;;;;;;20.68;55.69;99163.74;273305;1268;22316;-84
2024/04/06 14:21:05;;;;;;;4.90;1.80;;;;;;;20.47;56.55;99165.18;273308;1269;22533;-84
2024/04/06 14:27:32;;;;;;;4.10;1.90;;;;;;;20.34;56.74;99168.15;272625;1269;22300;-82
2024/04/06 14:34:26;;;;;;;4.70;1.80;;;;;;;20.19;56.78;99162.77;271297;1269;22670;-85
2024/04/06 14:40:57;;;;;;;2.00;1.40;;;;;;;20.06;56.90;99161.90;270850;1269;24032;-85
2024/04/06 14:47:24;;;;;;;5.30;1.90;;;;;;;20.04;57.76;99161.15;272042;1256;22546;-85
2024/04/06 14:53:28;;;;;;;7.30;1.90;;;;;;;20.08;58.68;99161.86;271182;1269;23225;-84
2024/04/06 14:59:33;;;;;;;6.60;2.90;;;;;;;20.08;59.38;99162.48;273817;1260;23520;-84
2024/04/06 15:05:42;;;;;;;5.50;2.10;;;;;;;20.01;59.68;99167.27;273790;1270;25385;-86
2024/04/06 15:12:30;;;;;;;5.10;2.60;;;;;;;19.93;59.60;99166.98;272894;1269;24216;-84
2024/04/06 15:18:44;;;;;;;5.50;2.20;;;;;;;19.92;59.40;99167.88;272766;1272;22231;-84
2024/04/06 15:24:45;;;;;;;4.90;2.10;;;;;;;19.88;59.09;99176.87;272966;1269;22565;-84
2024/04/06 15:30:49;;;;;;;5.50;2.10;;;;;;;19.82;59.74;99183.35;273357;1269;22257;-84
2024/04/06 15:37:04;;;;;;;4.40;1.80;;;;;;;19.79;60.41;99185.89;273541;1269;22898;-83
2024/04/06 15:43:50;;;;;;;5.50;2.40;;;;;;;19.70;60.08;99180.23;272896;1269;22255;-83
2024/04/06 15:50:43;;;;;;;7.20;3.00;;;;;;;19.62;61.00;99171.44;271814;1269;22568;-85
2024/04/06 15:57:03;;;;;;;4.00;2.10;;;;;;;19.67;62.00;99169.83;272495;1270;22408;-84
2024/04/06 16:04:24;;;;;;;5.20;2.00;;;;;;;19.79;62.35;99179.30;272740;1268;22516;-84
2024/04/06 16:11:07;;;;;;;6.70;2.40;;;;;;;19.76;62.65;99178.73;271214;1269;22593;-84
2024/04/06 16:17:21;;;;;;;5.60;2.40;;;;;;;19.57;62.77;99181.40;272921;1267;23674;-84
2024/04/06 16:23:27;;;;;;;6.10;2.40;;;;;;;19.36;62.72;99177.88;271347;1268;22559;-85
2024/04/06 16:30:21;;;;;;;6.40;2.30;;;;;;;19.18;62.77;99178.86;272318;1268;22234;-84
2024/04/06 16:36:22;;;;;;;3.90;2.20;;;;;;;18.88;64.02;99187.80;270954;1268;22541;-84
2024/04/06 16:42:23;;;;;;;5.20;2.00;;;;;;;18.61;64.83;99197.00;272424;1268;22551;-84
2024/04/06 16:48:24;;;;;;;5.70;2.60;;;;;;;18.35;65.00;99199.74;273262;1265;22566;-85
2024/04/06 16:54:29;;;;;;;4.20;2.30;;;;;;;18.13;65.26;99201.52;272540;1269;22557;-85
2024/04/06 17:00:55;;;;;;;6.60;2.80;;;;;;;17.92;65.27;99206.42;273162;1269;23577;-85
2024/04/06 17:06:58;;;;;;;9.70;4.80;;;;;;;17.69;65.57;99210.80;273902;1273;22481;-86
2024/04/06 17:13:24;;;;;;;15.60;5.10;;;;;;;17.45;66.46;99214.98;265629;1269;10001722;-85
2024/04/06 17:19:46;;;;;;;6.90;3.70;;;;;;;17.29;67.42;99218.50;273561;1268;22403;-85
2024/04/06 17:25:48;;;;;;;9.50;3.60;;;;;;;17.18;67.96;99219.11;273873;1268;22276;-85
2024/04/06 17:31:59;;;;;;;9.80;3.30;;;;;;;16.95;68.80;99229.88;273778;1272;23353;-82
2024/04/06 17:38:04;;;;;;;9.20;5.80;;;;;;;16.81;69.68;99235.32;273914;1268;22409;-83
2024/04/06 17:44:36;;;;;;;15.00;8.60;;;;;;;16.67;70.42;99239.09;273686;1268;22418;-84
2024/04/06 17:50:37;;;;;;;31.60;16.70;;;;;;;16.45;71.36;99236.75;272555;1268;22554;-85
2024/04/06 17:57:28;;;;;;;49.10;29.50;;;;;;;16.20;72.17;99243.17;273081;1267;22295;-83
2024/04/06 18:04:28;;;;;;;25.00;14.70;;;;;;;15.91;73.07;99247.31;273644;1268;23406;-84
2024/04/06 18:10:54;;;;;;;18.40;11.60;;;;;;;15.52;74.02;99254.06;272927;1269;22563;-84
2024/04/06 18:16:58;;;;;;;16.50;7.60;;;;;;;15.19;75.01;99250.23;274156;1275;22231;-83
2024/04/06 18:22:59;;;;;;;14.30;7.20;;;;;;;14.91;75.98;99258.90;273205;1268;22249;-83
2024/04/06 18:29:01;;;;;;;15.80;7.80;;;;;;;14.67;77.03;99266.89;272315;1267;22561;-84
2024/04/06 18:35:30;;;;;;;13.40;7.50;;;;;;;14.46;77.93;99265.02;272757;1273;22283;-84
2024/04/06 18:41:39;;;;;;;15.30;10.20;;;;;;;14.35;79.04;99257.63;273554;1267;22403;-84
2024/04/06 18:47:46;;;;;;;15.80;10.50;;;;;;;14.17;79.58;99253.64;273710;1270;22388;-84
2024/04/06 18:53:47;;;;;;;30.40;16.60;;;;;;;13.93;80.28;99265.95;273568;1268;22401;-83
2024/04/06 19:00:39;;;;;;;26.60;16.50;;;;;;;13.75;80.82;99276.30;266334;1267;8328958;-84
2024/04/06 19:06:42;;;;;;;35.40;20.40;;;;;;;13.52;81.65;99281.55;243107;1270;20005652;-83
2024/04/06 19:12:44;;;;;;;47.30;29.90;;;;;;;13.31;82.45;99288.15;273680;1268;22322;-84
2024/04/06 19:19:11;;;;;;;50.60;32.10;;;;;;;13.16;83.14;99286.89;273493;1270;22545;-84
2024/04/06 19:25:43;;;;;;;59.60;35.10;;;;;;;12.99;84.03;99289.61;274018;1257;22563;-83
2024/04/06 19:31:44;;;;;;;39.80;25.00;;;;;;;12.79;84.82;99295.05;273022;1267;22543;-84
2024/04/06 19:38:12;;;;;;;41.70;25.40;;;;;;;12.67;85.84;99296.05;271274;1269;23949;-83
2024/04/06 19:44:42;;;;;;;43.70;23.10;;;;;;;12.53;86.44;99298.05;272837;1267;22574;-84
2024/04/06 19:51:09;;;;;;;37.40;21.90;;;;;;;12.35;87.05;99293.60;272302;1269;23362;-84
2024/04/06 19:57:33;;;;;;;35.70;22.30;;;;;;;12.28;87.73;99293.52;273434;1268;22273;-83
2024/04/06 20:04:15;;;;;;;43.20;23.00;;;;;;;12.13;88.10;99295.89;272464;1267;22588;-84
2024/04/06 20:10:38;;;;;;;38.20;21.90;;;;;;;11.92;88.89;99307.59;273151;1270;22585;-83
2024/04/06 20:16:38;;;;;;;31.70;18.70;;;;;;;11.77;89.71;99320.13;272286;1269;23758;-84
2024/04/06 20:30:38;;;;;;;44.20;22.20;;;;;;;11.50;90.96;99339.28;271924;1270;22528;-84
2024/04/06 20:37:31;;;;;;;41.70;26.80;;;;;;;11.34;91.39;99341.73;273995;1272;22388;-83
2024/04/06 20:51:23;;;;;;;38.30;23.00;;;;;;;11.01;92.91;99354.09;273765;1270;23511;-83
2024/04/06 21:04:56;;;;;;;39.70;22.20;;;;;;;10.75;93.89;99355.02;272622;1273;23139;-83
2024/04/06 21:11:23;;;;;;;35.40;21.50;;;;;;;10.70;94.23;99353.78;272772;1274;22755;-84
2024/04/06 21:17:24;;;;;;;39.70;24.20;;;;;;;10.60;94.71;99342.26;273883;1269;22309;-83
2024/04/06 21:24:03;;;;;;;39.40;21.00;;;;;;;10.53;95.37;99336.20;274080;1273;23599;-85
2024/04/06 21:30:05;;;;;;;37.00;22.00;;;;;;;10.44;94.76;99332.52;273428;1269;23157;-84
2024/04/06 21:36:06;;;;;;;38.40;23.90;;;;;;;10.33;95.57;99333.34;272255;1267;23922;-84
2024/04/06 21:42:07;;;;;;;44.50;26.20;;;;;;;10.23;96.25;99326.38;271588;1269;22568;-84
2024/04/06 21:48:08;;;;;;;38.20;22.70;;;;;;;10.21;97.26;99324.78;271296;1269;22308;-84
2024/04/06 21:54:35;;;;;;;39.10;21.50;;;;;;;10.24;98.09;99330.30;272650;1269;22454;-84
2024/04/06 22:16:03;;;;;;;46.00;27.60;;;;;;;10.10;99.13;99339.35;274036;1275;22248;-84
2024/04/06 22:22:05;;;;;;;54.10;33.00;;;;;;;10.00;99.25;99348.91;273570;1270;22555;-84
2024/04/06 22:28:06;;;;;;;51.60;32.30;;;;;;;9.88;99.58;99351.57;271606;1268;22659;-84
2024/04/06 22:34:12;;;;;;;47.60;28.80;;;;;;;9.81;99.93;99351.48;271458;1269;22611;-85
2024/04/06 22:40:18;;;;;;;49.90;29.60;;;;;;;9.73;100.00;99358.29;273641;1269;22394;-84
2024/04/06 23:10:09;;;;;;;48.30;29.30;;;;;;;9.50;100.00;99382.65;271909;1269;22727;-83
2024/04/06 23:16:36;;;;;;;46.70;28.10;;;;;;;9.45;100.00;99388.26;272851;1269;22265;-83
2024/04/06 23:22:37;;;;;;;49.10;28.70;;;;;;;9.38;100.00;99393.72;272181;1268;22531;-83
2024/04/06 23:29:04;;;;;;;52.20;30.60;;;;;;;9.34;100.00;99395.95;272168;1269;22399;-83
2024/04/06 23:35:32;;;;;;;45.70;29.60;;;;;;;9.21;100.00;99395.77;273010;1269;22233;-83
2024/04/06 23:41:33;;;;;;;;;;;;;;;9.17;100.00;99396.13;273884;1269;22494;-83
2024/04/06 23:47:34;;;;;;;47.50;27.80;;;;;;;9.13;100.00;99395.48;272350;1268;23768;-83
2024/04/06 23:53:44;;;;;;;48.60;29.00;;;;;;;9.10;100.00;99400.63;270927;1267;24278;-83
